createdAt,value
2024-02-07T00:00:19.503Z,31.70
2024-02-07T00:02:46.345Z,33.90
2024-02-07T00:05:13.318Z,31.83
2024-02-07T00:07:41.172Z,34.13
2024-02-07T00:10:08.789Z,33.72
2024-02-07T00:12:35.649Z,34.83
2024-02-07T00:15:02.530Z,30.70
2024-02-07T00:17:29.265Z,32.28
2024-02-07T00:19:56.109Z,31.55
2024-02-07T00:22:22.925Z,33.50
2024-02-07T00:24:49.774Z,33.95
2024-02-07T00:27:16.779Z,33.30
2024-02-07T00:29:43.649Z,33.22
2024-02-07T00:32:10.511Z,34.15
2024-02-07T00:34:38.359Z,31.80
2024-02-07T00:37:05.384Z,36.05
2024-02-07T00:39:32.325Z,33.50
2024-02-07T00:41:59.058Z,32.72
2024-02-07T00:44:25.784Z,31.65
2024-02-07T00:46:52.640Z,33.13
2024-02-07T00:49:19.554Z,32.40
2024-02-07T00:51:46.488Z,33.67
2024-02-07T00:54:13.467Z,32.05
2024-02-07T00:56:41.489Z,33.88
2024-02-07T00:59:08.299Z,31.88
2024-02-07T01:01:35.550Z,31.52
2024-02-07T01:04:02.367Z,29.48
2024-02-07T01:06:29.299Z,32.45
2024-02-07T01:08:56.207Z,31.98
2024-02-07T01:11:22.998Z,33.03
2024-02-07T01:13:50.613Z,33.17
2024-02-07T01:16:17.640Z,30.80
2024-02-07T01:18:44.573Z,32.83
2024-02-07T01:21:11.655Z,32.38
2024-02-07T01:23:39.831Z,30.13
2024-02-07T01:26:07.449Z,31.20
2024-02-07T01:28:34.404Z,33.47
2024-02-07T01:31:01.462Z,34.13
2024-02-07T01:33:28.353Z,32.80
2024-02-07T01:35:55.668Z,33.13
2024-02-07T01:38:22.412Z,30.55
2024-02-07T01:40:50.368Z,31.73
2024-02-07T01:43:17.612Z,32.80
2024-02-07T01:45:44.403Z,34.13
2024-02-07T01:48:11.719Z,32.38
2024-02-07T01:50:40.751Z,31.55
2024-02-07T01:53:10.845Z,36.67
2024-02-07T01:55:38.076Z,36.65
2024-02-07T01:58:05.292Z,36.45
2024-02-07T02:05:09.389Z,35.90
2024-02-07T02:07:36.221Z,36.53
2024-02-07T02:10:03.035Z,35.20
2024-02-07T02:12:30.459Z,35.13
2024-02-07T02:14:58.224Z,37.08
2024-02-07T02:17:25.070Z,37.67
2024-02-07T02:19:52.027Z,36.47
2024-02-07T02:23:02.628Z,35.30
2024-02-07T02:25:59.533Z,36.83
2024-02-07T02:29:05.747Z,35.22
2024-02-07T02:31:34.487Z,36.63
2024-02-07T02:34:02.298Z,35.35
2024-02-07T02:36:29.254Z,34.20
2024-02-07T02:38:55.982Z,35.08
2024-02-07T02:41:24.553Z,35.88
2024-02-07T02:43:51.523Z,35.22
2024-02-07T02:46:18.266Z,36.92
2024-02-07T02:48:45.263Z,34.53
2024-02-07T02:51:12.178Z,33.70
2024-02-07T02:53:39.776Z,34.47
2024-02-07T02:56:07.068Z,36.10
2024-02-07T02:58:42.420Z,34.92
2024-02-07T03:01:11.640Z,36.95
2024-02-07T03:03:39.197Z,35.28
2024-02-07T03:06:19.263Z,36.15
2024-02-07T03:08:55.212Z,35.20
2024-02-07T03:11:22.143Z,36.90
2024-02-07T03:13:49.630Z,36.03
2024-02-07T03:16:16.826Z,34.88
2024-02-07T03:18:43.739Z,35.88
2024-02-07T03:21:10.588Z,35.28
2024-02-07T03:23:37.502Z,37.55
2024-02-07T03:26:07.392Z,34.75
2024-02-07T03:28:34.239Z,35.67
2024-02-07T03:31:01.236Z,35.85
2024-02-07T03:33:28.154Z,34.00
2024-02-07T03:35:58.474Z,33.45
2024-02-07T03:38:25.326Z,35.90
2024-02-07T03:40:52.313Z,35.97
2024-02-07T03:43:19.360Z,32.83
2024-02-07T03:45:46.225Z,35.17
2024-02-07T03:48:16.702Z,34.92
2024-02-07T03:50:43.522Z,34.00
2024-02-07T03:53:10.272Z,36.47
2024-02-07T03:55:38.377Z,35.13
2024-02-07T03:58:06.528Z,35.08
2024-02-07T04:00:34.165Z,35.45
2024-02-07T04:03:01.368Z,33.85
2024-02-07T04:05:28.497Z,33.40
2024-02-07T04:07:55.584Z,35.13
2024-02-07T04:10:25.152Z,35.50
2024-02-07T04:12:52.547Z,34.22
2024-02-07T04:15:38.217Z,33.90
2024-02-07T04:18:23.916Z,34.00
2024-02-07T04:21:11.196Z,34.50
2024-02-07T04:23:57.022Z,33.40
2024-02-07T04:26:44.743Z,34.60
2024-02-07T04:29:29.937Z,34.15
2024-02-07T04:32:15.641Z,32.60
2024-02-07T04:35:02.344Z,35.50
2024-02-07T04:37:47.735Z,36.13
2024-02-07T04:40:33.099Z,36.60
2024-02-07T04:43:18.451Z,38.60
2024-02-07T04:46:03.589Z,38.58
2024-02-07T04:48:48.778Z,37.88
2024-02-07T04:51:33.822Z,37.67
2024-02-07T04:54:19.118Z,38.53
2024-02-07T04:57:04.222Z,37.28
2024-02-07T04:59:49.356Z,39.20
2024-02-07T05:02:34.567Z,40.65
2024-02-07T05:05:19.844Z,37.75
2024-02-07T05:08:05.177Z,37.35
2024-02-07T05:10:50.520Z,36.88
2024-02-07T05:13:35.788Z,37.40
2024-02-07T05:16:02.488Z,37.53
2024-02-07T05:18:29.359Z,35.35
2024-02-07T05:20:56.198Z,34.67
2024-02-07T05:23:22.893Z,35.17
2024-02-07T05:25:49.773Z,33.03
2024-02-07T05:28:16.734Z,33.45
2024-02-07T05:30:43.643Z,33.85
2024-02-07T05:33:10.762Z,33.55
2024-02-07T05:35:38.016Z,35.60
2024-02-07T05:38:05.195Z,31.80
2024-02-07T05:40:32.266Z,31.73
2024-02-07T05:43:00.442Z,30.77
2024-02-07T05:45:27.200Z,33.47
2024-02-07T05:47:53.921Z,32.70
2024-02-07T05:50:20.693Z,32.78
2024-02-07T05:52:47.689Z,30.30
2024-02-07T05:55:14.670Z,30.38
2024-02-07T05:57:41.499Z,30.48
2024-02-07T06:00:10.212Z,33.60
2024-02-07T06:02:40.152Z,34.40
2024-02-07T06:05:07.776Z,33.13
2024-02-07T06:07:35.438Z,33.42
2024-02-07T06:10:02.679Z,34.00
2024-02-07T06:12:32.196Z,36.38
2024-02-07T06:15:01.653Z,31.95
2024-02-07T06:17:30.020Z,32.20
2024-02-07T06:19:57.530Z,31.85
2024-02-07T06:22:24.530Z,34.03
2024-02-07T06:24:51.809Z,32.40
2024-02-07T06:27:18.671Z,32.85
2024-02-07T06:29:46.107Z,33.45
2024-02-07T06:32:14.239Z,31.83
2024-02-07T06:34:41.218Z,30.73
2024-02-07T06:37:08.058Z,29.75
2024-02-07T06:39:34.755Z,33.60
2024-02-07T06:42:01.496Z,32.08
2024-02-07T06:44:28.229Z,35.35
2024-02-07T06:46:55.012Z,32.22
2024-02-07T06:49:21.970Z,35.63
2024-02-07T06:51:48.971Z,29.77
2024-02-07T06:54:16.391Z,33.13
2024-02-07T06:56:43.320Z,31.98
2024-02-07T06:59:12.787Z,34.10
2024-02-07T07:01:41.521Z,32.58
2024-02-07T07:04:08.361Z,30.85
2024-02-07T07:06:35.170Z,33.85
2024-02-07T07:09:02.070Z,34.22
2024-02-07T07:11:29.125Z,34.85
2024-02-07T07:14:00.168Z,30.90
2024-02-07T07:16:29.428Z,30.02
2024-02-07T07:18:58.632Z,32.33
2024-02-07T07:21:25.395Z,32.17
2024-02-07T07:23:52.593Z,32.30
2024-02-07T07:26:19.340Z,34.35
2024-02-07T07:28:46.192Z,34.83
2024-02-07T07:31:13.006Z,33.00
2024-02-07T07:33:39.845Z,33.95
2024-02-07T07:36:07.042Z,31.33
2024-02-07T07:38:33.975Z,35.58
2024-02-07T07:41:02.997Z,33.47
2024-02-07T07:43:29.831Z,34.58
2024-02-07T07:45:56.644Z,31.60
2024-02-07T07:48:24.636Z,33.05
2024-02-07T07:50:52.194Z,32.50
2024-02-07T07:53:19.040Z,31.27
2024-02-07T07:55:45.890Z,31.13
2024-02-07T07:58:12.705Z,31.08
2024-02-07T08:00:39.463Z,31.67
2024-02-07T08:03:06.200Z,32.08
2024-02-07T08:05:33.565Z,33.30
2024-02-07T08:08:00.852Z,33.08
2024-02-07T08:10:29.058Z,33.28
2024-02-07T08:12:55.852Z,30.48
2024-02-07T08:15:22.786Z,29.00
2024-02-07T08:17:49.546Z,36.13
2024-02-07T08:20:16.470Z,34.40
2024-02-07T08:22:43.986Z,31.73
2024-02-07T08:25:10.927Z,33.67
2024-02-07T08:27:37.738Z,35.50
2024-02-07T08:30:05.113Z,33.78
2024-02-07T08:32:33.282Z,34.70
2024-02-07T08:35:00.941Z,31.95
2024-02-07T08:37:28.179Z,32.03
2024-02-07T08:39:55.263Z,31.70
2024-02-07T08:42:22.266Z,33.65
2024-02-07T08:44:49.506Z,34.15
2024-02-07T08:47:16.244Z,33.08
2024-02-07T08:49:43.310Z,32.25
2024-02-07T08:52:10.229Z,30.92
2024-02-07T08:54:36.984Z,32.03
2024-02-07T08:57:04.064Z,30.33
2024-02-07T08:59:31.523Z,33.53
2024-02-07T09:01:58.469Z,32.25
2024-02-07T09:04:25.497Z,33.78
2024-02-07T09:06:52.354Z,31.92
2024-02-07T09:09:19.127Z,34.38
2024-02-07T09:11:45.885Z,30.88
2024-02-07T09:14:13.091Z,33.05
2024-02-07T09:16:39.921Z,35.40
2024-02-07T09:19:09.261Z,34.00
2024-02-07T09:21:36.267Z,32.05
2024-02-07T09:24:05.436Z,33.40
2024-02-07T09:26:32.524Z,33.70
2024-02-07T09:29:00.762Z,34.45
2024-02-07T09:31:27.691Z,33.95
2024-02-07T09:33:54.465Z,33.22
2024-02-07T09:36:21.400Z,33.70
2024-02-07T09:38:48.208Z,31.13
2024-02-07T09:41:18.376Z,33.92
2024-02-07T09:43:46.973Z,32.67
2024-02-07T09:46:14.203Z,33.53
2024-02-07T09:48:41.021Z,35.35
2024-02-07T09:51:15.744Z,31.15
2024-02-07T09:53:42.793Z,32.97
2024-02-07T09:56:10.251Z,34.33
2024-02-07T09:58:37.229Z,33.45
2024-02-07T10:01:08.052Z,32.40
2024-02-07T10:03:37.929Z,33.35
2024-02-07T10:06:05.590Z,31.48
2024-02-07T10:08:32.526Z,33.92
2024-02-07T10:11:00.811Z,34.35
2024-02-07T10:13:28.107Z,33.53
2024-02-07T10:15:55.061Z,35.13
2024-02-07T10:18:22.031Z,34.25
2024-02-07T10:20:54.320Z,32.65
2024-02-07T10:23:22.312Z,34.72
2024-02-07T10:25:51.061Z,34.83
2024-02-07T10:28:18.447Z,36.08
2024-02-07T10:31:05.329Z,32.45
2024-02-07T10:33:43.185Z,39.13
2024-02-07T10:36:13.221Z,36.97
2024-02-07T10:38:41.091Z,34.10
2024-02-07T10:41:08.081Z,36.20
2024-02-07T10:43:37.292Z,36.38
2024-02-07T10:46:12.104Z,33.67
2024-02-07T10:48:40.044Z,35.95
2024-02-07T10:51:07.491Z,34.67
2024-02-07T10:53:34.586Z,35.10
2024-02-07T10:56:03.188Z,36.97
2024-02-07T10:58:30.736Z,35.30
2024-02-07T11:00:58.481Z,34.67
2024-02-07T11:03:36.389Z,36.58
2024-02-07T11:06:03.760Z,34.30
2024-02-07T11:08:31.023Z,35.75
2024-02-07T11:10:58.934Z,34.58
2024-02-07T11:13:26.925Z,36.03
2024-02-07T11:15:53.921Z,34.28
2024-02-07T11:18:20.983Z,34.60
2024-02-07T11:20:49.129Z,33.78
2024-02-07T11:23:20.985Z,33.30
2024-02-07T11:25:48.024Z,31.45
2024-02-07T11:28:14.946Z,32.17
2024-02-07T11:30:43.194Z,32.70
2024-02-07T11:33:11.274Z,34.42
2024-02-07T11:35:38.315Z,31.70
2024-02-07T11:38:06.053Z,32.42
2024-02-07T11:40:43.568Z,33.80
2024-02-07T11:43:19.892Z,33.33
2024-02-07T11:45:46.777Z,38.05
2024-02-07T11:48:24.158Z,34.50
2024-02-07T11:50:52.099Z,38.80
2024-02-07T11:53:22.751Z,34.80
2024-02-07T11:55:49.716Z,32.50
2024-02-07T11:58:18.876Z,33.63
2024-02-07T12:00:49.020Z,34.72
2024-02-07T12:03:16.562Z,31.45
2024-02-07T12:05:47.570Z,33.05
2024-02-07T12:08:15.485Z,35.05
2024-02-07T12:10:42.762Z,33.08
2024-02-07T12:13:11.689Z,34.72
2024-02-07T12:15:38.665Z,33.38
2024-02-07T12:18:09.553Z,34.08
2024-02-07T12:20:38.631Z,36.03
2024-02-07T12:23:06.164Z,34.55
2024-02-07T12:25:33.036Z,33.80
2024-02-07T12:28:11.659Z,33.83
2024-02-07T12:30:39.558Z,35.08
2024-02-07T12:33:06.518Z,33.97
2024-02-07T12:35:33.565Z,34.13
2024-02-07T12:38:01.654Z,32.47
2024-02-07T12:40:31.526Z,32.65
2024-02-07T12:42:59.022Z,33.72
2024-02-07T12:45:25.975Z,35.92
2024-02-07T12:47:53.227Z,34.25
2024-02-07T12:50:21.785Z,32.72
2024-02-07T12:52:49.220Z,34.08
2024-02-07T12:55:16.226Z,32.05
2024-02-07T12:57:44.822Z,31.02
2024-02-07T13:00:15.626Z,33.50
2024-02-07T13:02:49.597Z,33.42
2024-02-07T13:05:17.261Z,34.45
2024-02-07T13:07:44.425Z,33.67
2024-02-07T13:10:11.461Z,30.80
2024-02-07T13:12:39.499Z,31.35
2024-02-07T13:15:07.292Z,33.40
2024-02-07T13:17:38.156Z,34.50
2024-02-07T13:20:05.679Z,30.98
2024-02-07T13:22:32.786Z,34.25
2024-02-07T13:25:10.171Z,32.83
2024-02-07T13:27:40.804Z,33.10
2024-02-07T13:30:08.677Z,32.25
2024-02-07T13:32:35.650Z,36.03
2024-02-07T13:35:03.282Z,31.27
2024-02-07T13:37:30.300Z,32.63
2024-02-07T13:39:57.094Z,33.50
2024-02-07T13:42:23.904Z,35.33
2024-02-07T13:44:50.644Z,33.70
2024-02-07T13:47:19.105Z,35.88
2024-02-07T13:49:46.081Z,31.35
2024-02-07T13:52:13.047Z,30.58
2024-02-07T13:54:39.923Z,31.65
2024-02-07T13:57:06.983Z,33.72
2024-02-07T13:59:33.779Z,32.00
2024-02-07T14:02:02.328Z,33.28
2024-02-07T14:04:29.298Z,34.10
2024-02-07T14:06:56.191Z,33.88
2024-02-07T14:09:23.026Z,32.38
2024-02-07T14:11:49.819Z,33.70
2024-02-07T14:14:16.761Z,31.58
2024-02-07T14:16:51.115Z,31.73
2024-02-07T14:19:19.669Z,36.17
2024-02-07T14:21:46.705Z,33.35
2024-02-07T14:24:14.253Z,33.10
2024-02-07T14:26:41.397Z,34.88
2024-02-07T14:29:08.309Z,33.97
2024-02-07T14:31:35.112Z,33.15
2024-02-07T14:34:01.988Z,34.88
2024-02-07T14:36:28.807Z,33.53
2024-02-07T14:38:55.729Z,35.53
2024-02-07T14:41:23.712Z,34.13
2024-02-07T14:43:50.986Z,32.53
2024-02-07T14:46:17.772Z,33.70
2024-02-07T14:48:45.354Z,33.92
2024-02-07T14:51:12.398Z,34.50
2024-02-07T14:53:39.142Z,35.45
2024-02-07T14:56:07.136Z,32.65
2024-02-07T14:58:34.679Z,34.92
2024-02-07T15:01:01.799Z,34.80
2024-02-07T15:03:28.634Z,41.63
2024-02-07T15:05:56.423Z,35.33
2024-02-07T15:08:23.219Z,37.60
2024-02-07T15:10:50.017Z,34.03
2024-02-07T15:13:16.879Z,32.97
2024-02-07T15:15:44.315Z,33.28
2024-02-07T15:18:11.874Z,33.90
2024-02-07T15:20:39.000Z,34.53
2024-02-07T15:23:05.868Z,33.50
2024-02-07T15:25:35.234Z,34.90
2024-02-07T15:28:02.082Z,33.42
2024-02-07T15:30:28.797Z,36.53
2024-02-07T15:32:55.671Z,37.75
2024-02-07T15:35:22.762Z,37.33
2024-02-07T15:37:49.756Z,36.45
2024-02-07T15:40:17.593Z,35.40
2024-02-07T15:42:44.326Z,36.03
2024-02-07T15:45:11.134Z,36.13
2024-02-07T15:47:38.002Z,35.67
2024-02-07T15:50:05.559Z,35.85
2024-02-07T15:52:33.337Z,37.92
2024-02-07T15:55:00.130Z,35.17
2024-02-07T15:57:26.884Z,35.78
2024-02-07T15:59:53.864Z,36.22
2024-02-07T16:02:20.808Z,36.78
2024-02-07T16:04:47.602Z,33.90
2024-02-07T16:07:14.407Z,33.58
2024-02-07T16:09:44.668Z,33.75
2024-02-07T16:12:11.611Z,33.83
2024-02-07T16:14:38.430Z,37.13
2024-02-07T16:17:05.275Z,37.97
2024-02-07T16:19:32.594Z,35.30
2024-02-07T16:21:59.401Z,34.38
2024-02-07T16:24:27.940Z,36.33
2024-02-07T16:26:55.929Z,36.58
2024-02-07T16:29:24.178Z,34.97
2024-02-07T16:31:51.244Z,36.10
2024-02-07T16:34:18.366Z,37.50
2024-02-07T16:36:45.427Z,31.88
2024-02-07T16:39:12.509Z,33.88
2024-02-07T16:41:42.292Z,36.08
2024-02-07T16:44:09.370Z,39.35
2024-02-07T16:46:36.222Z,39.90
2024-02-07T16:49:04.166Z,38.15
2024-02-07T16:51:32.266Z,40.47
2024-02-07T16:53:59.763Z,41.65
2024-02-07T16:56:26.580Z,40.10
2024-02-07T16:58:53.586Z,39.55
2024-02-07T17:01:22.838Z,39.30
2024-02-07T17:03:49.838Z,38.55
2024-02-07T17:06:22.049Z,39.13
2024-02-07T17:08:49.034Z,38.97
2024-02-07T17:11:15.855Z,39.22
2024-02-07T17:13:42.688Z,38.95
2024-02-07T17:16:09.569Z,39.40
2024-02-07T17:18:36.492Z,37.65
2024-02-07T17:21:03.697Z,39.63
2024-02-07T17:23:31.451Z,39.97
2024-02-07T17:25:58.974Z,38.15
2024-02-07T17:28:27.024Z,38.67
2024-02-07T17:30:54.046Z,37.97
2024-02-07T17:33:21.235Z,38.35
2024-02-07T17:35:48.107Z,40.03
2024-02-07T17:38:15.320Z,38.65
2024-02-07T17:40:43.412Z,40.05
2024-02-07T17:43:10.209Z,36.88
2024-02-07T17:45:36.981Z,37.65
2024-02-07T17:48:04.146Z,37.58
2024-02-07T17:50:35.072Z,39.03
2024-02-07T17:53:04.615Z,38.80
2024-02-07T17:55:31.822Z,38.50
2024-02-07T17:57:58.638Z,38.65
2024-02-07T18:00:25.551Z,38.15
2024-02-07T18:02:52.520Z,39.17
2024-02-07T18:05:24.458Z,37.33
2024-02-07T18:07:57.410Z,37.58
2024-02-07T18:10:24.529Z,37.92
2024-02-07T18:12:53.695Z,35.97
2024-02-07T18:15:20.653Z,38.60
2024-02-07T18:17:47.449Z,39.88
2024-02-07T18:20:14.736Z,39.47
2024-02-07T18:22:41.639Z,37.80
2024-02-07T18:25:09.333Z,36.67
2024-02-07T18:27:37.017Z,39.38
2024-02-07T18:30:04.452Z,37.40
2024-02-07T18:32:31.876Z,38.13
2024-02-07T18:34:59.114Z,39.80
2024-02-07T18:37:26.035Z,36.10
2024-02-07T18:39:52.919Z,36.45
2024-02-07T18:42:19.879Z,36.72
2024-02-07T18:44:46.588Z,37.95
2024-02-07T18:47:13.565Z,35.97
2024-02-07T18:49:40.428Z,36.55
2024-02-07T18:52:07.377Z,34.05
2024-02-07T18:57:39.221Z,36.67
2024-02-07T19:00:09.006Z,36.92
2024-02-07T19:02:36.055Z,36.17
2024-02-07T19:05:03.322Z,37.75
2024-02-07T19:07:30.373Z,38.60
2024-02-07T19:09:57.273Z,36.40
2024-02-07T19:12:24.195Z,36.63
2024-02-07T19:15:00.094Z,32.55
2024-02-07T19:17:29.181Z,38.17
2024-02-07T19:19:56.088Z,33.80
2024-02-07T19:22:25.103Z,38.95
2024-02-07T19:24:56.356Z,36.03
2024-02-07T19:27:23.176Z,35.67
2024-02-07T19:29:50.232Z,36.38
2024-02-07T19:32:17.184Z,35.50
2024-02-07T19:34:45.010Z,38.55
2024-02-07T19:37:11.853Z,37.13
2024-02-07T19:39:38.620Z,39.63
2024-02-07T19:42:06.426Z,38.78
2024-02-07T19:44:33.278Z,39.00
2024-02-07T19:47:00.170Z,37.58
2024-02-07T19:49:27.194Z,40.83
2024-02-07T19:51:53.998Z,48.08
2024-02-07T19:54:20.818Z,40.03
2024-02-07T19:59:15.122Z,39.92
2024-02-07T20:01:41.930Z,39.83
2024-02-07T20:04:11.674Z,40.38
2024-02-07T20:06:39.224Z,37.45
2024-02-07T20:09:06.311Z,39.80
2024-02-07T20:11:33.402Z,39.33
2024-02-07T20:14:00.248Z,39.85
2024-02-07T20:16:27.073Z,41.28
2024-02-07T20:18:53.984Z,40.25
2024-02-07T20:21:20.881Z,46.60
2024-02-07T20:23:47.637Z,40.33
2024-02-07T20:26:14.514Z,40.63
2024-02-07T20:28:41.881Z,39.08
2024-02-07T20:31:09.253Z,44.88
2024-02-07T20:33:36.077Z,39.72
2024-02-07T20:36:03.177Z,37.00
2024-02-07T20:38:30.012Z,37.03
2024-02-07T20:40:57.018Z,39.42
2024-02-07T20:43:23.860Z,37.88
2024-02-07T20:45:50.643Z,42.95
2024-02-07T20:48:17.685Z,38.15
2024-02-07T20:50:44.608Z,39.90
2024-02-07T20:53:12.356Z,37.20
2024-02-07T20:55:39.182Z,38.15
2024-02-07T20:58:05.954Z,39.03
2024-02-07T21:00:34.052Z,40.75
2024-02-07T21:03:02.905Z,38.30
2024-02-07T21:05:30.303Z,37.70
2024-02-07T21:07:57.274Z,37.25
2024-02-07T21:10:24.199Z,37.28
2024-02-07T21:12:50.982Z,37.75
2024-02-07T21:15:18.686Z,39.55
2024-02-07T21:17:46.266Z,39.45
2024-02-07T21:20:15.133Z,39.50
2024-02-07T21:22:42.195Z,39.83
2024-02-07T21:25:09.671Z,38.95
2024-02-07T21:27:36.813Z,41.30
2024-02-07T21:30:03.913Z,40.10
2024-02-07T21:32:30.731Z,42.65
2024-02-07T21:34:57.732Z,41.78
2024-02-07T21:37:24.495Z,42.78
2024-02-07T21:39:51.251Z,40.60
2024-02-07T21:42:18.131Z,41.17
2024-02-07T21:44:44.955Z,35.30
2024-02-07T21:47:11.761Z,39.03
2024-02-07T21:49:38.624Z,35.78
2024-02-07T21:52:06.515Z,35.90
2024-02-07T21:54:33.260Z,35.10
2024-02-07T21:57:00.080Z,37.88
2024-02-07T21:59:26.779Z,37.63
2024-02-07T22:01:53.583Z,36.35
2024-02-07T22:04:20.651Z,35.53
2024-02-07T22:06:47.565Z,36.58
2024-02-07T22:09:14.389Z,36.92
2024-02-07T22:11:41.204Z,37.13
2024-02-07T22:14:10.189Z,35.78
2024-02-07T22:16:37.179Z,36.78
2024-02-07T22:19:04.019Z,35.38
2024-02-07T22:21:30.954Z,37.83
2024-02-07T22:23:58.656Z,36.13
2024-02-07T22:26:25.486Z,36.10
2024-02-07T22:28:52.388Z,35.38
2024-02-07T22:31:21.833Z,34.60
2024-02-07T22:33:52.496Z,36.65
2024-02-07T22:36:20.442Z,36.25
2024-02-07T22:38:47.501Z,35.22
2024-02-07T22:41:14.373Z,36.63
2024-02-07T22:43:41.367Z,35.08
2024-02-07T22:46:11.596Z,36.60
2024-02-07T22:48:38.994Z,38.42
2024-02-07T22:51:06.052Z,36.00
2024-02-07T22:53:32.978Z,35.88
2024-02-07T22:56:00.492Z,38.55
2024-02-07T22:58:28.920Z,35.58
2024-02-07T23:00:56.468Z,35.40
2024-02-07T23:03:23.538Z,37.05
2024-02-07T23:05:51.234Z,36.78
2024-02-07T23:08:18.390Z,35.45
2024-02-07T23:10:51.393Z,37.55
2024-02-07T23:13:22.162Z,37.15
2024-02-07T23:15:48.939Z,36.58
2024-02-07T23:18:15.896Z,38.13
2024-02-07T23:20:42.780Z,38.10
2024-02-07T23:23:09.608Z,35.42
2024-02-07T23:25:36.503Z,39.22
2024-02-07T23:28:03.440Z,36.72
2024-02-07T23:30:32.353Z,37.00
2024-02-07T23:32:59.279Z,37.53
2024-02-07T23:35:26.337Z,35.50
2024-02-07T23:37:53.318Z,37.40
2024-02-07T23:40:20.125Z,35.70
2024-02-07T23:42:47.965Z,37.17
2024-02-07T23:45:14.888Z,38.03
2024-02-07T23:47:41.700Z,37.83
2024-02-07T23:50:08.910Z,36.10
2024-02-07T23:52:36.033Z,36.60
2024-02-07T23:55:05.936Z,34.65
2024-02-07T23:57:32.680Z,36.67
2024-02-07T23:59:59.466Z,36.55
